Time;durP1;ratioP1;P1;durP2;ratioP2;P2;SDS_P1;SDS_P2;PMS_P1;PMS_P2;Temp;Humidity;BMP_temperature;BMP_pressure;BME280_temperature;BME280_humidity;BME280_pressure;Samples;Min_cycle;Max_cycle;Signal;HPM_P1;HPM_P2
2022/07/06 00:01:30;;;;;;;5.63;1.20;;;18.30;61.30;;;;;;5046356;28;20078;-79
2022/07/06 00:03:56;;;;;;;6.00;1.33;;;18.20;61.30;;;;;;5038658;28;20033;-80
2022/07/06 00:06:23;;;;;;;6.47;1.40;;;18.20;61.70;;;;;;5041489;28;20563;-80
2022/07/06 00:08:49;;;;;;;6.82;1.58;;;18.20;61.90;;;;;;5044080;28;20032;-79
2022/07/06 00:11:15;;;;;;;6.63;1.55;;;18.20;62.40;;;;;;5031582;28;20033;-80
2022/07/06 00:13:41;;;;;;;7.28;1.52;;;18.10;62.70;;;;;;5042097;28;20037;-80
2022/07/06 00:16:06;;;;;;;7.93;1.63;;;18.10;62.80;;;;;;5043896;28;20065;-80
2022/07/06 00:18:32;;;;;;;5.05;1.33;;;18.10;62.70;;;;;;5041030;28;20683;-80
2022/07/06 00:20:58;;;;;;;9.18;1.60;;;18.30;67.10;;;;;;5041357;28;20066;-80
2022/07/06 00:23:24;;;;;;;5.47;1.40;;;18.00;61.90;;;;;;5038436;28;20057;-80
2022/07/06 00:25:49;;;;;;;4.15;1.40;;;18.00;61.90;;;;;;5040199;28;20067;-80
2022/07/06 00:28:15;;;;;;;6.80;1.65;;;17.90;61.80;;;;;;5034285;28;20437;-80
2022/07/06 00:30:41;;;;;;;6.22;1.40;;;17.90;62.00;;;;;;5033136;28;20037;-80
2022/07/06 00:33:07;;;;;;;5.85;1.45;;;19.10;70.50;;;;;;5040641;28;20533;-80
2022/07/06 00:35:33;;;;;;;5.05;1.50;;;17.80;62.80;;;;;;5043131;28;20029;-80
2022/07/06 00:37:59;;;;;;;4.80;1.50;;;19.00;71.80;;;;;;5041528;28;20113;-80
2022/07/06 00:40:25;;;;;;;7.38;1.70;;;19.00;70.40;;;;;;5043647;28;20025;-80
2022/07/06 00:42:50;;;;;;;5.35;1.52;;;17.50;68.90;;;;;;5034558;28;20459;-80
2022/07/06 00:45:17;;;;;;;7.78;1.50;;;19.20;70.40;;;;;;5043204;28;20041;-81
2022/07/06 00:47:44;;;;;;;6.47;1.73;;;17.80;63.60;;;;;;5041997;28;20028;-80
2022/07/06 00:50:15;;;;;;;6.63;2.03;;;17.70;63.80;;;;;;5034880;28;20809;-80
2022/07/06 00:52:42;;;;;;;7.32;1.58;;;17.70;64.20;;;;;;5036511;28;20025;-80
2022/07/06 00:55:09;;;;;;;6.45;1.85;;;17.70;64.00;;;;;;5037336;28;20043;-80
2022/07/06 00:57:35;;;;;;;6.88;1.88;;;19.80;72.30;;;;;;5032444;28;20030;-80
2022/07/06 01:00:04;;;;;;;6.22;1.80;;;18.80;71.70;;;;;;5035477;28;20394;-80
2022/07/06 01:02:34;;;;;;;8.27;1.88;;;17.30;70.50;;;;;;5041206;28;20032;-80
2022/07/06 01:05:00;;;;;;;4.87;1.57;;;17.50;64.30;;;;;;5030712;28;20047;-80
2022/07/06 01:07:25;;;;;;;5.13;1.60;;;17.50;64.10;;;;;;5046042;28;20287;-80
2022/07/06 01:09:51;;;;;;;5.03;1.50;;;17.50;64.00;;;;;;5043567;28;20063;-80
2022/07/06 01:12:18;;;;;;;5.88;1.48;;;17.50;64.10;;;;;;5045403;28;20025;-80
2022/07/06 01:14:44;;;;;;;3.35;1.30;;;18.90;72.00;;;;;;5037914;28;20038;-81
2022/07/06 01:17:10;;;;;;;6.65;1.83;;;17.40;63.80;;;;;;5033057;28;20028;-80
2022/07/06 01:19:36;;;;;;;5.55;1.60;;;15.60;70.50;;;;;;5033554;28;20037;-80
2022/07/06 01:22:02;;;;;;;5.45;1.67;;;17.30;63.90;;;;;;5037369;28;20048;-81
2022/07/06 01:24:28;;;;;;;4.55;1.55;;;17.30;64.20;;;;;;5036354;28;20722;-81
2022/07/06 01:26:53;;;;;;;6.05;1.38;;;17.20;64.30;;;;;;5039855;28;20041;-80
2022/07/06 01:29:19;;;;;;;6.40;1.90;;;17.90;71.30;;;;;;5042661;28;20515;-81
2022/07/06 01:31:49;;;;;;;6.43;1.52;;;16.20;72.60;;;;;;5029576;28;20037;-80
2022/07/06 01:34:18;;;;;;;4.40;1.50;;;17.20;64.80;;;;;;5040594;28;20132;-80
2022/07/06 01:36:45;;;;;;;7.07;1.60;;;17.20;64.80;;;;;;5030082;28;20033;-81
2022/07/06 01:39:10;;;;;;;7.25;1.50;;;16.70;72.70;;;;;;5040819;28;20037;-81
2022/07/06 01:41:37;;;;;;;5.22;1.60;;;17.20;66.00;;;;;;5034266;28;20369;-80
2022/07/06 01:44:04;;;;;;;6.50;1.80;;;17.80;75.80;;;;;;5036040;28;20643;-80
2022/07/06 01:46:30;;;;;;;6.03;1.60;;;17.50;77.20;;;;;;5048107;28;20083;-80
2022/07/06 01:48:56;;;;;;;5.65;1.75;;;17.70;76.50;;;;;;5040645;28;20107;-80
2022/07/06 01:51:22;;;;;;;7.57;1.63;;;17.10;64.70;;;;;;5031688;28;20049;-80
2022/07/06 01:53:48;;;;;;;6.60;1.80;;;17.10;64.70;;;;;;5033342;28;20029;-80
2022/07/06 01:56:14;;;;;;;4.85;1.67;;;17.20;73.10;;;;;;5044819;28;20017;-81
2022/07/06 01:58:40;;;;;;;5.53;2.03;;;16.60;73.20;;;;;;5030640;28;20029;-80
2022/07/06 02:01:10;;;;;;;5.13;1.80;;;16.80;72.90;;;;;;5034428;28;20041;-80
2022/07/06 02:03:36;;;;;;;4.67;1.90;;;17.00;65.70;;;;;;5036625;28;20032;-80
2022/07/06 02:06:03;;;;;;;7.93;2.10;;;17.00;65.80;;;;;;5037806;28;20307;-81
2022/07/06 02:08:29;;;;;;;6.68;1.88;;;17.00;65.90;;;;;;5029334;28;20025;-80
2022/07/06 02:10:55;;;;;;;5.63;1.70;;;16.50;74.20;;;;;;5031043;28;20578;-80
2022/07/06 02:13:20;;;;;;;4.88;1.70;;;17.00;65.70;;;;;;5031254;28;20036;-80
2022/07/06 02:15:46;;;;;;;5.40;1.80;;;16.90;65.40;;;;;;5042628;28;20033;-80
2022/07/06 02:18:12;;;;;;;4.45;1.73;;;17.50;73.60;;;;;;5038350;28;20033;-80
2022/07/06 02:20:37;;;;;;;7.43;1.70;;;16.80;66.70;;;;;;5034761;28;20029;-80
2022/07/06 02:23:03;;;;;;;6.05;2.00;;;16.80;74.10;;;;;;5032344;28;20044;-81
2022/07/06 02:25:29;;;;;;;6.45;1.70;;;17.90;76.60;;;;;;5041549;28;20144;-79
2022/07/06 02:27:55;;;;;;;6.03;2.03;;;17.30;74.60;;;;;;5031337;28;20029;-80
2022/07/06 02:30:21;;;;;;;5.97;1.70;;;14.20;74.70;;;;;;5033019;28;20033;-80
2022/07/06 02:32:46;;;;;;;5.43;1.75;;;16.80;66.50;;;;;;5034588;28;20080;-80
2022/07/06 02:35:12;;;;;;;4.45;1.67;;;16.90;74.60;;;;;;5037262;28;20034;-80
2022/07/06 02:37:38;;;;;;;5.55;2.10;;;16.50;76.50;;;;;;5038431;28;20057;-80
2022/07/06 02:40:04;;;;;;;6.05;2.00;;;16.80;74.60;;;;;;5033563;28;20112;-80
2022/07/06 02:42:30;;;;;;;6.65;1.80;;;19.60;78.10;;;;;;5039979;28;20781;-80
2022/07/06 02:44:56;;;;;;;5.97;1.80;;;16.50;75.20;;;;;;5035941;28;20112;-80
2022/07/06 02:47:22;;;;;;;4.25;1.83;;;16.40;75.40;;;;;;5044114;28;20025;-80
2022/07/06 02:49:48;;;;;;;4.15;1.70;;;16.00;75.90;;;;;;5032613;28;20040;-80
2022/07/06 02:52:13;;;;;;;6.78;1.98;;;16.60;75.50;;;;;;5046233;28;20059;-80
2022/07/06 02:54:40;;;;;;;6.00;1.88;;;;;;;;;;5043302;28;20484;-81
2022/07/06 02:57:06;;;;;;;5.55;1.58;;;16.20;75.50;;;;;;5042349;28;20487;-81
2022/07/06 02:59:32;;;;;;;5.43;1.70;;;16.40;68.00;;;;;;5043594;28;20544;-80
2022/07/06 03:01:58;;;;;;;5.35;1.70;;;;;;;;;;5035294;28;20132;-81
2022/07/06 03:04:24;;;;;;;8.27;2.03;;;;;;;;;;5031129;28;20061;-80
2022/07/06 03:06:49;;;;;;;6.72;1.85;;;16.50;66.30;;;;;;5045082;28;20067;-80
2022/07/06 03:09:15;;;;;;;4.70;1.88;;;16.40;67.30;;;;;;5041428;28;20095;-81
2022/07/06 03:11:41;;;;;;;6.50;1.70;;;17.60;75.50;;;;;;5044341;28;20025;-80
2022/07/06 03:14:06;;;;;;;6.90;1.80;;;16.40;67.40;;;;;;5035869;28;20025;-80
2022/07/06 03:16:33;;;;;;;5.32;1.85;;;16.80;75.00;;;;;;5050114;28;20029;-79
2022/07/06 03:18:58;;;;;;;6.70;2.08;;;16.40;75.00;;;;;;5035351;28;20028;-80
2022/07/06 03:21:25;;;;;;;7.40;1.83;;;16.30;67.30;;;;;;5034701;28;20030;-80
2022/07/06 03:23:50;;;;;;;4.15;1.60;;;16.30;67.50;;;;;;5039731;28;20084;-80
2022/07/06 03:26:16;;;;;;;4.47;1.83;;;16.30;67.60;;;;;;5044603;28;20037;-80
2022/07/06 03:28:42;;;;;;;7.13;2.00;;;16.30;67.70;;;;;;5042492;28;20057;-80
2022/07/06 03:31:08;;;;;;;6.40;1.92;;;16.30;68.00;;;;;;5033426;28;20152;-80
2022/07/06 03:33:33;;;;;;;5.93;1.95;;;16.30;68.00;;;;;;5037892;28;20103;-80
2022/07/06 03:35:59;;;;;;;3.65;1.60;;;15.90;75.40;;;;;;5038102;28;20033;-80
2022/07/06 03:38:25;;;;;;;7.20;2.00;;;16.00;75.80;;;;;;5034423;28;20023;-81
2022/07/06 03:40:50;;;;;;;5.38;1.98;;;16.40;76.10;;;;;;5032722;28;20646;-80
2022/07/06 03:43:17;;;;;;;7.18;2.20;;;15.50;77.10;;;;;;5045604;28;20017;-81
2022/07/06 03:45:42;;;;;;;4.30;1.75;;;16.20;68.40;;;;;;5035194;28;20037;-80
2022/07/06 03:48:08;;;;;;;5.35;1.90;;;16.20;68.40;;;;;;5043038;28;20119;-80
2022/07/06 03:50:34;;;;;;;5.57;1.90;;;16.00;77.60;;;;;;5043579;28;20033;-80
2022/07/06 03:53:00;;;;;;;4.70;1.95;;;17.00;79.70;;;;;;5046555;28;20029;-80
2022/07/06 03:55:27;;;;;;;5.45;2.08;;;16.00;79.70;;;;;;5040286;28;20442;-80
2022/07/06 03:57:52;;;;;;;5.28;1.90;;;16.00;79.60;;;;;;5041828;28;20048;-80
2022/07/06 04:00:18;;;;;;;5.45;2.00;;;;;;;;;;5042043;28;20489;-80
2022/07/06 04:02:44;;;;;;;7.10;1.95;;;16.20;79.50;;;;;;5040122;28;20026;-80
2022/07/06 04:05:09;;;;;;;7.15;2.08;;;16.10;80.60;;;;;;5039845;28;20037;-80
2022/07/06 04:07:35;;;;;;;6.55;2.05;;;15.80;79.90;;;;;;5030853;28;20025;-80
2022/07/06 04:10:01;;;;;;;4.30;1.90;;;16.00;68.70;;;;;;5040257;28;20030;-79
2022/07/06 04:12:26;;;;;;;6.75;2.10;;;16.50;81.10;;;;;;5045493;28;20067;-82
2022/07/06 04:14:52;;;;;;;6.13;2.30;;;16.40;80.90;;;;;;5037106;28;20018;-79
2022/07/06 04:20:10;;;;;;;5.60;2.42;;;15.80;82.00;;;;;;5032246;28;20029;-86
2022/07/06 04:22:39;;;;;;;5.65;2.13;;;15.90;68.20;;;;;;5030909;28;20420;-87
2022/07/06 04:25:05;;;;;;;5.50;2.38;;;16.80;83.10;;;;;;5034330;28;20049;-89
2022/07/06 04:27:31;;;;;;;6.13;2.00;;;;;;;;;;5039674;28;20545;-80
2022/07/06 04:29:57;;;;;;;6.28;2.20;;;16.70;82.30;;;;;;5031559;28;20531;-81
2022/07/06 04:32:22;;;;;;;5.78;2.17;;;16.00;81.10;;;;;;5030675;28;20037;-79
2022/07/06 04:34:48;;;;;;;5.63;2.20;;;15.70;79.50;;;;;;5029124;28;20036;-83
2022/07/06 04:37:14;;;;;;;7.05;2.38;;;16.60;78.90;;;;;;5038599;28;20116;-85
2022/07/06 04:39:39;;;;;;;7.53;2.20;;;15.90;78.40;;;;;;5037719;28;20143;-85
2022/07/06 04:42:05;;;;;;;7.43;2.00;;;16.30;79.90;;;;;;5036630;28;20094;-87
2022/07/06 04:44:31;;;;;;;9.30;2.10;;;15.20;79.70;;;;;;5039314;28;20073;-87
2022/07/06 04:46:57;;;;;;;5.80;1.90;;;;;;;;;;5041846;28;20522;-87
2022/07/06 04:49:23;;;;;;;7.68;2.40;;;17.10;80.20;;;;;;5036639;28;20056;-80
2022/07/06 04:51:48;;;;;;;9.75;2.60;;;16.60;79.60;;;;;;5039798;28;20053;-87
2022/07/06 04:54:14;;;;;;;7.88;2.40;;;14.00;78.10;;;;;;5044335;28;20111;-87
2022/07/06 04:56:40;;;;;;;8.90;2.60;;;16.10;79.80;;;;;;5041639;28;20041;-87
2022/07/06 04:59:05;;;;;;;6.70;2.28;;;17.00;81.50;;;;;;5045669;28;20492;-86
2022/07/06 05:01:31;;;;;;;7.07;2.50;;;17.10;81.00;;;;;;5046279;28;20036;-85
2022/07/06 05:03:57;;;;;;;6.90;2.55;;;15.40;80.60;;;;;;5034837;28;20037;-83
2022/07/06 05:08:59;;;;;;;7.18;2.67;;;16.00;69.80;;;;;;4549790;22;20045;-84
2022/07/06 05:11:28;;;;;;;7.32;2.70;;;15.10;82.40;;;;;;5021636;28;20048;-84
2022/07/06 05:13:55;;;;;;;6.05;2.60;;;16.80;83.00;;;;;;5020330;28;20088;-85
2022/07/06 05:16:21;;;;;;;8.30;2.60;;;16.10;70.40;;;;;;5020828;28;20033;-84
2022/07/06 05:18:47;;;;;;;7.40;2.65;;;15.90;83.00;;;;;;5009368;28;20030;-86
2022/07/06 05:21:13;;;;;;;7.90;2.50;;;16.00;82.20;;;;;;5024048;28;20033;-86
2022/07/06 05:23:39;;;;;;;11.05;3.08;;;16.70;82.10;;;;;;5018656;28;20637;-83
2022/07/06 05:26:06;;;;;;;6.57;2.70;;;17.10;84.60;;;;;;5017275;28;20496;-84
2022/07/06 05:28:31;;;;;;;8.85;3.08;;;16.50;82.70;;;;;;5020817;28;20028;-82
2022/07/06 05:30:57;;;;;;;8.52;3.28;;;;;;;;;;5018363;28;20026;-82
2022/07/06 05:33:23;;;;;;;8.32;3.10;;;16.50;71.70;;;;;;5021095;28;20022;-83
2022/07/06 05:35:49;;;;;;;9.75;3.10;;;16.20;85.20;;;;;;5022736;28;20132;-82
2022/07/06 05:38:15;;;;;;;10.93;3.00;;;17.20;87.10;;;;;;5018563;28;20601;-82
2022/07/06 05:40:41;;;;;;;11.68;3.40;;;17.50;84.90;;;;;;5018958;28;20573;-82
2022/07/06 05:43:07;;;;;;;8.45;3.13;;;16.80;87.30;;;;;;5026631;28;20026;-85
2022/07/06 05:45:32;;;;;;;9.98;3.42;;;17.90;79.00;;;;;;5018007;28;20084;-78
2022/07/06 05:50:42;;;;;;;8.27;3.33;;;17.00;87.70;;;;;;5010913;28;20041;-86
2022/07/06 05:53:08;;;;;;;7.80;3.65;;;15.60;87.50;;;;;;5019768;28;20018;-87
2022/07/06 05:55:34;;;;;;;13.05;4.20;;;17.60;89.40;;;;;;5014815;28;20454;-87
2022/07/06 05:57:59;;;;;;;9.52;3.50;;;17.20;88.80;;;;;;5011060;28;20026;-87
2022/07/06 06:00:27;;;;;;;9.50;3.67;;;17.40;89.70;;;;;;5016258;28;20109;-86
2022/07/06 06:02:53;;;;;;;10.93;3.60;;;17.60;89.60;;;;;;5011581;28;20040;-86
2022/07/06 06:05:20;;;;;;;7.32;3.50;;;18.60;90.20;;;;;;5016914;28;20038;-87
2022/07/06 06:07:48;;;;;;;10.77;3.40;;;17.50;87.60;;;;;;5015932;28;20048;-85
2022/07/06 06:10:14;;;;;;;7.85;3.20;;;18.20;87.10;;;;;;5018214;28;20050;-85
2022/07/06 06:12:41;;;;;;;9.73;3.10;;;18.10;76.60;;;;;;5021544;28;20043;-86
2022/07/06 06:15:08;;;;;;;7.68;3.03;;;18.60;75.70;;;;;;5017116;28;20025;-86
2022/07/06 06:17:36;;;;;;;11.98;3.20;;;18.80;85.40;;;;;;5023471;28;20105;-85
2022/07/06 06:20:03;;;;;;;10.48;3.60;;;18.60;76.10;;;;;;5020242;28;20022;-85
2022/07/06 06:22:29;;;;;;;9.20;3.10;;;18.80;76.10;;;;;;5022366;28;20041;-85
2022/07/06 06:24:54;;;;;;;7.15;2.50;;;19.00;75.20;;;;;;5022063;28;20037;-87
2022/07/06 06:27:20;;;;;;;11.57;2.70;;;19.20;74.70;;;;;;5020452;28;20110;-88
2022/07/06 06:29:46;;;;;;;6.50;2.38;;;19.40;74.30;;;;;;5019456;28;20029;-78
2022/07/06 06:32:13;;;;;;;7.30;2.25;;;21.30;81.30;;;;;;5021725;28;20152;-83
2022/07/06 06:34:41;;;;;;;7.00;2.40;;;19.80;72.80;;;;;;5030944;28;20056;-75
2022/07/06 06:37:07;;;;;;;7.95;2.20;;;19.50;79.10;;;;;;5017835;28;20040;-75
2022/07/06 06:39:33;;;;;;;6.90;2.63;;;19.70;78.60;;;;;;5018766;28;20033;-84
2022/07/06 06:41:59;;;;;;;8.15;2.60;;;20.00;78.50;;;;;;5022627;28;20040;-83
2022/07/06 06:44:24;;;;;;;5.88;2.35;;;20.50;69.60;;;;;;5012443;28;20037;-77
2022/07/06 06:46:52;;;;;;;11.80;2.53;;;21.10;68.50;;;;;;5024907;28;20122;-76
2022/07/06 06:49:18;;;;;;;8.38;2.35;;;21.20;66.20;;;;;;5023268;28;20039;-78
2022/07/06 06:51:44;;;;;;;7.93;1.98;;;24.20;74.50;;;;;;5020917;28;20163;-83
2022/07/06 06:54:10;;;;;;;10.48;2.00;;;21.60;65.80;;;;;;5019393;28;20022;-84
2022/07/06 06:56:36;;;;;;;7.65;1.95;;;22.10;64.00;;;;;;5026634;28;20029;-87
2022/07/06 06:59:02;;;;;;;7.60;1.73;;;23.40;65.00;;;;;;5022241;28;20037;-79
2022/07/06 07:01:29;;;;;;;8.88;2.08;;;22.50;57.40;;;;;;5016122;28;20506;-84
2022/07/06 07:03:55;;;;;;;8.82;1.90;;;24.90;51.50;;;;;;5024493;28;20089;-84
2022/07/06 07:06:21;;;;;;;6.45;2.00;;;26.00;47.20;;;;;;5023846;28;20042;-82
2022/07/06 07:08:49;;;;;;;4.82;1.55;;;27.30;47.40;;;;;;5017668;28;20416;-81
2022/07/06 07:11:15;;;;;;;7.68;1.80;;;27.40;42.40;;;;;;5023417;28;20022;-84
2022/07/06 07:13:40;;;;;;;8.52;1.90;;;27.90;40.60;;;;;;5023204;28;20511;-83
2022/07/06 07:16:06;;;;;;;5.15;1.90;;;28.30;39.60;;;;;;5011634;28;20029;-84
2022/07/06 07:18:32;;;;;;;8.73;2.10;;;28.60;38.70;;;;;;5013999;28;20036;-80
2022/07/06 07:20:58;;;;;;;5.68;1.80;;;28.90;38.90;;;;;;5027224;28;20037;-81
2022/07/06 07:23:24;;;;;;;6.95;1.75;;;30.10;41.00;;;;;;5023840;28;20035;-79
2022/07/06 07:25:49;;;;;;;7.47;1.90;;;29.50;36.10;;;;;;5021531;28;20377;-80
2022/07/06 07:28:16;;;;;;;7.80;1.85;;;29.90;35.40;;;;;;5021108;28;20045;-75
2022/07/06 07:30:42;;;;;;;7.50;1.80;;;30.20;34.80;;;;;;5013892;28;20025;-77
2022/07/06 07:33:08;;;;;;;8.95;1.95;;;30.50;34.20;;;;;;5019721;28;20032;-76
2022/07/06 07:35:33;;;;;;;7.00;1.60;;;30.80;34.30;;;;;;5019506;28;20476;-78
2022/07/06 07:37:59;;;;;;;5.78;1.50;;;31.00;33.40;;;;;;5027489;28;20033;-77
2022/07/06 07:40:25;;;;;;;7.47;1.70;;;31.00;33.70;;;;;;5029816;28;20044;-77
2022/07/06 07:42:50;;;;;;;5.53;1.55;;;31.50;31.50;;;;;;5029393;28;20025;-77
2022/07/06 07:45:16;;;;;;;5.47;1.58;;;31.50;31.60;;;;;;5010163;28;20129;-77
2022/07/06 07:47:43;;;;;;;6.43;1.60;;;31.10;31.90;;;;;;5025733;28;20036;-77
2022/07/06 07:50:09;;;;;;;8.57;1.80;;;30.70;32.80;;;;;;5021696;28;20400;-77
2022/07/06 07:52:34;;;;;;;7.38;1.80;;;30.20;33.80;;;;;;5022782;28;20133;-77
2022/07/06 07:55:00;;;;;;;5.38;1.65;;;29.70;35.80;;;;;;5020247;28;20112;-77
2022/07/06 07:57:26;;;;;;;9.50;1.98;;;29.10;36.00;;;;;;5015644;28;20045;-77
2022/07/06 07:59:52;;;;;;;10.10;2.00;;;28.40;37.60;;;;;;5029463;28;20037;-77
2022/07/06 08:02:17;;;;;;;8.75;2.20;;;27.90;39.40;;;;;;5017691;28;20587;-77
2022/07/06 08:04:43;;;;;;;5.28;1.85;;;27.60;39.90;;;;;;5026915;28;20029;-77
2022/07/06 08:07:09;;;;;;;8.05;2.17;;;27.30;40.10;;;;;;5020740;28;20022;-77
2022/07/06 08:09:34;;;;;;;5.63;1.80;;;27.10;40.20;;;;;;5015227;28;20049;-77
2022/07/06 08:12:00;;;;;;;8.18;2.10;;;27.00;41.00;;;;;;5021758;28;20033;-77
2022/07/06 08:14:26;;;;;;;10.88;2.10;;;26.90;42.50;;;;;;5017386;28;20109;-76
2022/07/06 08:16:52;;;;;;;8.32;2.15;;;26.80;41.70;;;;;;5013427;28;20104;-77
2022/07/06 08:19:18;;;;;;;5.70;1.85;;;26.70;41.80;;;;;;5036733;28;20073;-77
2022/07/06 08:21:44;;;;;;;10.63;2.38;;;26.70;41.60;;;;;;5013386;28;20025;-77
2022/07/06 08:24:10;;;;;;;9.05;1.90;;;;;;;;;;5015367;28;20049;-77
2022/07/06 08:26:36;;;;;;;7.60;2.10;;;26.60;40.10;;;;;;5028423;28;20210;-77
2022/07/06 08:29:02;;;;;;;6.80;1.98;;;26.50;41.10;;;;;;5019907;28;20564;-77
2022/07/06 08:31:28;;;;;;;6.18;2.00;;;26.40;41.20;;;;;;5012280;28;20155;-77
2022/07/06 08:33:55;;;;;;;5.15;2.03;;;24.80;45.20;;;;;;5013180;28;20021;-76
2022/07/06 08:36:21;;;;;;;8.02;2.00;;;26.40;41.60;;;;;;5023097;28;20049;-77
2022/07/06 08:38:48;;;;;;;6.38;2.00;;;26.40;41.40;;;;;;5028147;28;20109;-77
2022/07/06 08:41:16;;;;;;;5.45;2.03;;;26.50;41.00;;;;;;5016504;28;20025;-76
2022/07/06 08:43:42;;;;;;;5.57;2.15;;;26.50;41.40;;;;;;5023444;28;20558;-76
2022/07/06 08:46:08;;;;;;;6.28;2.20;;;26.60;40.70;;;;;;5012643;28;20062;-76
2022/07/06 08:48:40;;;;;;;5.95;2.13;;;26.70;40.60;;;;;;5011028;28;20022;-77
2022/07/06 08:51:06;;;;;;;7.57;2.10;;;26.80;40.10;;;;;;5017467;28;20120;-77
2022/07/06 08:53:32;;;;;;;5.60;1.98;;;27.20;43.00;;;;;;5018313;28;20169;-77
2022/07/06 08:55:58;;;;;;;3.80;1.80;;;27.10;39.30;;;;;;5019481;28;20095;-77
2022/07/06 08:58:26;;;;;;;7.40;1.75;;;27.40;38.50;;;;;;5023544;28;20104;-78
2022/07/06 09:00:53;;;;;;;4.75;1.70;;;27.70;38.20;;;;;;5021804;28;20028;-77
2022/07/06 09:03:19;;;;;;;5.82;1.80;;;27.90;37.60;;;;;;5024148;28;20037;-78
2022/07/06 09:05:46;;;;;;;5.20;1.75;;;27.70;40.20;;;;;;5010196;28;20042;-77
2022/07/06 09:08:12;;;;;;;7.10;1.70;;;27.80;40.90;;;;;;5012968;28;20033;-77
2022/07/06 09:10:38;;;;;;;5.05;1.80;;;28.10;40.60;;;;;;5021794;28;20039;-77
2022/07/06 09:13:05;;;;;;;6.90;1.88;;;28.40;36.30;;;;;;5026132;28;20399;-78
2022/07/06 09:15:32;;;;;;;5.18;1.67;;;28.50;35.30;;;;;;5021509;28;20124;-78
2022/07/06 09:17:58;;;;;;;5.03;1.50;;;28.20;35.30;;;;;;5023424;28;20036;-78
2022/07/06 09:20:24;;;;;;;5.55;1.60;;;27.90;35.60;;;;;;5017016;28;20403;-78
2022/07/06 09:22:50;;;;;;;5.40;1.70;;;27.60;35.90;;;;;;5013802;28;20065;-77
2022/07/06 09:25:16;;;;;;;4.57;1.27;;;28.30;34.90;;;;;;5017206;28;20523;-78
2022/07/06 09:27:54;;;;;;;6.32;1.40;;;28.30;34.40;;;;;;5018424;28;20429;-78
2022/07/06 09:30:21;;;;;;;3.83;1.40;;;28.50;34.00;;;;;;5009034;28;20034;-77
2022/07/06 09:32:50;;;;;;;4.07;1.40;;;29.10;32.30;;;;;;5027245;28;20404;-78
2022/07/06 09:35:22;;;;;;;6.07;1.60;;;28.60;33.30;;;;;;5021023;28;20601;-78
2022/07/06 09:38:00;;;;;;;5.10;1.50;;;28.70;33.40;;;;;;5011136;28;20507;-77
2022/07/06 09:40:26;;;;;;;3.38;1.25;;;28.50;34.20;;;;;;5022089;28;20037;-77
2022/07/06 09:43:06;;;;;;;4.93;1.48;;;28.30;34.40;;;;;;5028308;28;20032;-78
2022/07/06 09:45:37;;;;;;;4.93;1.50;;;28.00;35.00;;;;;;5025076;28;20116;-78
2022/07/06 09:48:08;;;;;;;4.82;1.60;;;28.10;35.00;;;;;;5027806;28;20029;-78
2022/07/06 09:50:50;;;;;;;5.82;1.88;;;28.10;35.60;;;;;;5026079;28;20033;-78
2022/07/06 09:53:17;;;;;;;5.47;1.60;;;28.20;35.30;;;;;;5012344;28;20559;-78
2022/07/06 09:55:51;;;;;;;5.75;1.67;;;28.00;35.70;;;;;;5026023;28;20026;-78
2022/07/06 09:58:17;;;;;;;4.97;1.80;;;28.10;35.80;;;;;;5019141;28;20145;-78
2022/07/06 10:00:45;;;;;;;5.40;1.92;;;28.70;35.00;;;;;;5027449;28;20024;-78
2022/07/06 10:03:12;;;;;;;5.03;2.00;;;28.30;36.10;;;;;;5016589;28;20033;-77
2022/07/06 10:05:39;;;;;;;6.10;1.90;;;28.70;35.50;;;;;;5016573;28;20050;-78
2022/07/06 10:08:09;;;;;;;6.57;1.88;;;29.70;33.10;;;;;;5022304;28;20873;-78
2022/07/06 10:10:36;;;;;;;6.88;1.70;;;29.10;34.40;;;;;;5024871;28;20496;-78
2022/07/06 10:13:03;;;;;;;6.35;1.90;;;28.60;34.80;;;;;;5028583;28;20029;-78
2022/07/06 10:15:33;;;;;;;5.05;1.80;;;28.80;33.60;;;;;;5018971;28;20060;-78
2022/07/06 10:18:03;;;;;;;5.03;1.65;;;28.50;34.70;;;;;;5011481;28;20029;-77
2022/07/06 10:20:32;;;;;;;5.13;1.40;;;29.60;33.30;;;;;;5021554;28;20037;-77
2022/07/06 10:23:00;;;;;;;5.35;1.60;;;32.30;29.10;;;;;;5013060;28;20026;-78
2022/07/06 10:25:27;;;;;;;5.97;1.63;;;34.20;27.00;;;;;;5015348;28;20037;-78
2022/07/06 10:27:54;;;;;;;4.30;1.50;;;35.60;24.90;;;;;;5021425;28;20040;-78
2022/07/06 10:30:20;;;;;;;4.60;1.50;;;36.60;23.20;;;;;;5021977;28;20729;-78
2022/07/06 10:32:49;;;;;;;5.20;1.30;;;37.40;22.80;;;;;;5008982;28;20385;-78
2022/07/06 10:35:18;;;;;;;6.82;1.45;;;37.80;22.30;;;;;;5018682;28;20061;-78
2022/07/06 10:37:44;;;;;;;4.60;1.30;;;37.40;22.50;;;;;;5017187;28;20459;-78
2022/07/06 10:43:00;;;;;;;4.00;1.40;;;38.50;21.60;;;;;;5017012;28;20033;-78
2022/07/06 10:45:28;;;;;;;5.65;1.45;;;39.40;20.40;;;;;;5017789;28;20104;-77
2022/07/06 10:48:13;;;;;;;4.70;1.40;;;39.40;20.50;;;;;;5017238;28;20029;-78
2022/07/06 10:50:41;;;;;;;4.35;1.50;;;38.70;20.60;;;;;;5023383;28;20033;-79
2022/07/06 10:53:13;;;;;;;5.20;1.42;;;37.20;21.70;;;;;;5015358;28;20026;-78
2022/07/06 10:55:42;;;;;;;4.57;1.40;;;37.80;21.70;;;;;;5008233;28;20080;-78
2022/07/06 10:58:08;;;;;;;4.70;1.50;;;38.00;21.70;;;;;;5027083;28;20904;-78
2022/07/06 11:00:56;;;;;;;3.40;1.27;;;37.30;22.00;;;;;;5009860;28;20080;-78
2022/07/06 11:03:41;;;;;;;4.80;1.40;;;38.60;20.80;;;;;;5011193;28;20061;-77
2022/07/06 11:06:12;;;;;;;4.72;1.60;;;39.60;19.90;;;;;;5017341;28;20118;-78
2022/07/06 11:08:49;;;;;;;3.85;1.30;;;40.40;19.20;;;;;;5014623;28;20381;-77
2022/07/06 11:11:19;;;;;;;5.22;1.27;;;40.90;18.80;;;;;;5010387;28;20402;-78
2022/07/06 11:14:04;;;;;;;3.38;1.15;;;41.40;17.90;;;;;;5020141;28;20033;-77
2022/07/06 11:16:36;;;;;;;3.17;1.00;;;41.60;17.80;;;;;;5018468;28;20040;-78
2022/07/06 11:19:15;;;;;;;3.10;0.90;;;41.90;17.70;;;;;;5016858;28;20125;-78
2022/07/06 11:21:44;;;;;;;4.72;1.00;;;42.00;18.00;;;;;;5028561;28;20079;-77
2022/07/06 11:24:13;;;;;;;2.90;1.00;;;42.10;18.30;;;;;;5017329;28;20581;-77
2022/07/06 11:26:39;;;;;;;4.20;1.10;;;42.70;17.70;;;;;;5028122;28;20041;-78
2022/07/06 11:29:07;;;;;;;4.78;1.00;;;42.80;18.00;;;;;;5028595;28;20284;-78
2022/07/06 11:31:38;;;;;;;4.43;0.90;;;42.20;18.20;;;;;;5024879;28;20021;-78
2022/07/06 11:34:05;;;;;;;3.00;0.90;;;42.80;17.80;;;;;;5028454;28;20052;-78
2022/07/06 11:36:31;;;;;;;4.97;1.10;;;43.20;16.90;;;;;;5023974;28;20018;-77
2022/07/06 11:38:57;;;;;;;4.32;1.10;;;43.50;16.40;;;;;;5025845;28;20045;-78
2022/07/06 11:41:23;;;;;;;2.90;0.80;;;43.30;16.40;;;;;;5024153;28;20389;-78
2022/07/06 11:43:51;;;;;;;3.90;1.00;;;43.30;16.30;;;;;;5024520;28;20798;-78
2022/07/06 11:46:28;;;;;;;3.70;0.90;;;43.20;16.10;;;;;;5028325;28;20038;-78
2022/07/06 11:48:56;;;;;;;2.35;0.82;;;43.20;16.20;;;;;;5018256;28;20488;-79
2022/07/06 11:51:25;;;;;;;4.30;1.17;;;43.10;16.40;;;;;;5024908;28;20026;-79
2022/07/06 11:53:53;;;;;;;3.60;0.90;;;43.20;16.30;;;;;;5027193;28;20108;-78
2022/07/06 11:56:21;;;;;;;3.05;0.90;;;43.30;16.20;;;;;;5011993;28;20086;-79
2022/07/06 11:58:49;;;;;;;5.07;1.13;;;43.40;16.30;;;;;;5019436;28;20048;-78
2022/07/06 12:01:15;;;;;;;4.43;0.70;;;43.50;16.00;;;;;;5019288;28;20026;-78
2022/07/06 12:03:41;;;;;;;3.08;0.80;;;43.60;16.00;;;;;;5028203;28;20063;-78
2022/07/06 12:06:14;;;;;;;2.45;0.85;;;43.70;16.00;;;;;;5020731;28;20038;-78
2022/07/06 12:08:53;;;;;;;4.13;1.00;;;43.90;15.80;;;;;;5019352;28;20038;-78
2022/07/06 12:11:24;;;;;;;3.67;0.95;;;44.10;15.70;;;;;;5018705;28;20040;-78
2022/07/06 12:13:52;;;;;;;3.47;0.90;;;44.20;15.80;;;;;;5021732;28;20488;-78
2022/07/06 12:16:18;;;;;;;3.75;1.00;;;44.30;15.80;;;;;;5010723;28;20031;-78
2022/07/06 12:18:47;;;;;;;4.53;0.95;;;44.30;15.70;;;;;;5011828;28;20022;-78
2022/07/06 12:21:14;;;;;;;;;;;44.60;15.30;;;;;;5024900;28;20056;-76
2022/07/06 12:23:47;;;;;;;3.72;0.82;;;44.50;15.50;;;;;;5011582;28;19913;-78
2022/07/06 12:26:15;;;;;;;4.65;0.90;;;44.70;15.20;;;;;;5013583;28;20044;-77
2022/07/06 12:28:41;;;;;;;2.70;0.80;;;44.50;15.30;;;;;;5015616;28;20034;-77
2022/07/06 12:31:07;;;;;;;3.38;0.70;;;44.50;15.70;;;;;;5023159;28;20041;-77
2022/07/06 12:33:33;;;;;;;2.88;0.80;;;44.70;15.60;;;;;;5014564;28;20022;-76
2022/07/06 12:36:10;;;;;;;2.95;0.80;;;44.90;15.20;;;;;;5026765;28;20492;-76
2022/07/06 12:38:43;;;;;;;5.93;0.85;;;45.20;15.10;;;;;;5021579;28;20368;-76
2022/07/06 12:41:09;;;;;;;1.98;0.70;;;45.20;14.70;;;;;;5016110;28;20061;-76
2022/07/06 12:43:39;;;;;;;2.75;0.75;;;45.00;14.90;;;;;;5025192;28;21641;-77
2022/07/06 12:46:29;;;;;;;3.42;1.00;;;44.10;15.20;;;;;;5019611;28;20034;-77
2022/07/06 12:48:55;;;;;;;4.88;0.90;;;42.40;16.90;;;;;;5023545;28;20495;-76
2022/07/06 12:51:21;;;;;;;5.80;1.08;;;;;;;;;;5025009;28;20621;-74
2022/07/06 12:53:48;;;;;;;6.65;1.08;;;39.50;18.30;;;;;;5016001;28;20263;-77
2022/07/06 12:56:14;;;;;;;2.08;0.70;;;42.70;22.70;;;;;;5023201;28;20026;-77
2022/07/06 12:58:57;;;;;;;2.95;0.85;;;39.80;21.80;;;;;;5028305;28;20770;-78
2022/07/06 13:01:23;;;;;;;3.38;0.85;;;38.30;24.60;;;;;;5026871;28;20032;-78